sensor_id;sensor_type;location;lat;lon;timestamp;P1;durP1;ratioP1;P2;durP2;ratioP2
71204;SDS011;58935;54.498;18.544;2022-08-19T00:01:27;11.90;;;7.00;;
71204;SDS011;58935;54.498;18.544;2022-08-19T00:03:55;13.30;;;7.50;;
71204;SDS011;58935;54.498;18.544;2022-08-19T00:06:22;14.60;;;7.10;;
71204;SDS011;58935;54.498;18.544;2022-08-19T00:08:48;9.00;;;6.80;;
71204;SDS011;58935;54.498;18.544;2022-08-19T00:11:13;16.30;;;7.30;;
71204;SDS011;58935;54.498;18.544;2022-08-19T00:13:39;15.10;;;7.70;;
71204;SDS011;58935;54.498;18.544;2022-08-19T00:16:05;10.80;;;7.50;;
71204;SDS011;58935;54.498;18.544;2022-08-19T00:18:33;10.40;;;6.70;;
71204;SDS011;58935;54.498;18.544;2022-08-19T00:20:59;10.60;;;6.90;;
71204;SDS011;58935;54.498;18.544;2022-08-19T00:23:26;13.10;;;7.60;;
71204;SDS011;58935;54.498;18.544;2022-08-19T00:25:52;11.00;;;7.20;;
71204;SDS011;58935;54.498;18.544;2022-08-19T00:28:18;9.10;;;7.70;;
71204;SDS011;58935;54.498;18.544;2022-08-19T00:30:45;8.00;;;7.20;;
71204;SDS011;58935;54.498;18.544;2022-08-19T00:33:11;14.20;;;7.50;;
71204;SDS011;58935;54.498;18.544;2022-08-19T00:35:38;13.90;;;7.00;;
71204;SDS011;58935;54.498;18.544;2022-08-19T00:38:05;9.00;;;7.40;;
71204;SDS011;58935;54.498;18.544;2022-08-19T00:40:32;8.80;;;6.60;;
71204;SDS011;58935;54.498;18.544;2022-08-19T00:42:58;13.30;;;7.20;;
71204;SDS011;58935;54.498;18.544;2022-08-19T00:45:28;12.70;;;7.60;;
71204;SDS011;58935;54.498;18.544;2022-08-19T00:47:56;7.90;;;6.60;;
71204;SDS011;58935;54.498;18.544;2022-08-19T00:50:22;13.20;;;7.40;;
71204;SDS011;58935;54.498;18.544;2022-08-19T00:52:50;12.40;;;7.30;;
71204;SDS011;58935;54.498;18.544;2022-08-19T00:55:20;17.40;;;7.30;;
71204;SDS011;58935;54.498;18.544;2022-08-19T00:57:55;12.50;;;7.30;;
71204;SDS011;58935;54.498;18.544;2022-08-19T01:00:24;8.60;;;7.20;;
71204;SDS011;58935;54.498;18.544;2022-08-19T01:02:52;12.60;;;7.60;;
71204;SDS011;58935;54.498;18.544;2022-08-19T01:05:23;17.70;;;7.30;;
71204;SDS011;58935;54.498;18.544;2022-08-19T01:07:53;11.20;;;6.90;;
71204;SDS011;58935;54.498;18.544;2022-08-19T01:10:24;11.70;;;7.60;;
71204;SDS011;58935;54.498;18.544;2022-08-19T01:12:52;14.60;;;8.00;;
71204;SDS011;58935;54.498;18.544;2022-08-19T01:15:27;12.50;;;7.90;;
71204;SDS011;58935;54.498;18.544;2022-08-19T01:17:56;13.60;;;7.50;;
71204;SDS011;58935;54.498;18.544;2022-08-19T01:20:25;15.30;;;8.00;;
71204;SDS011;58935;54.498;18.544;2022-08-19T01:22:54;11.00;;;7.70;;
71204;SDS011;58935;54.498;18.544;2022-08-19T01:25:28;10.60;;;7.70;;
71204;SDS011;58935;54.498;18.544;2022-08-19T01:27:57;12.10;;;7.90;;
71204;SDS011;58935;54.498;18.544;2022-08-19T01:30:29;13.40;;;8.20;;
71204;SDS011;58935;54.498;18.544;2022-08-19T01:32:57;15.30;;;7.60;;
71204;SDS011;58935;54.498;18.544;2022-08-19T01:35:26;15.40;;;8.10;;
71204;SDS011;58935;54.498;18.544;2022-08-19T01:37:57;14.60;;;8.40;;
71204;SDS011;58935;54.498;18.544;2022-08-19T01:40:29;11.30;;;7.10;;
71204;SDS011;58935;54.498;18.544;2022-08-19T01:42:57;16.00;;;7.90;;
71204;SDS011;58935;54.498;18.544;2022-08-19T01:45:25;11.60;;;7.70;;
71204;SDS011;58935;54.498;18.544;2022-08-19T01:47:53;11.60;;;8.30;;
71204;SDS011;58935;54.498;18.544;2022-08-19T01:50:19;11.30;;;7.60;;
71204;SDS011;58935;54.498;18.544;2022-08-19T01:52:46;12.10;;;8.50;;
71204;SDS011;58935;54.498;18.544;2022-08-19T01:55:15;12.60;;;8.00;;
71204;SDS011;58935;54.498;18.544;2022-08-19T01:57:48;10.60;;;7.90;;
71204;SDS011;58935;54.498;18.544;2022-08-19T02:00:19;13.50;;;8.00;;
71204;SDS011;58935;54.498;18.544;2022-08-19T02:02:47;10.30;;;7.70;;
71204;SDS011;58935;54.498;18.544;2022-08-19T02:05:13;17.80;;;7.90;;
71204;SDS011;58935;54.498;18.544;2022-08-19T02:07:40;13.10;;;8.50;;
71204;SDS011;58935;54.498;18.544;2022-08-19T02:10:10;11.30;;;7.90;;
71204;SDS011;58935;54.498;18.544;2022-08-19T02:12:38;15.90;;;8.60;;
71204;SDS011;58935;54.498;18.544;2022-08-19T02:15:05;13.70;;;8.50;;
71204;SDS011;58935;54.498;18.544;2022-08-19T02:17:31;15.20;;;8.30;;
71204;SDS011;58935;54.498;18.544;2022-08-19T02:19:57;11.90;;;8.10;;
71204;SDS011;58935;54.498;18.544;2022-08-19T02:22:24;13.20;;;8.20;;
71204;SDS011;58935;54.498;18.544;2022-08-19T02:24:52;9.60;;;7.70;;
71204;SDS011;58935;54.498;18.544;2022-08-19T02:27:18;11.90;;;8.00;;
71204;SDS011;58935;54.498;18.544;2022-08-19T02:29:46;18.40;;;8.50;;
71204;SDS011;58935;54.498;18.544;2022-08-19T02:32:12;19.70;;;8.70;;
71204;SDS011;58935;54.498;18.544;2022-08-19T02:34:39;12.10;;;8.10;;
71204;SDS011;58935;54.498;18.544;2022-08-19T02:37:04;13.30;;;8.60;;
71204;SDS011;58935;54.498;18.544;2022-08-19T02:39:30;14.80;;;8.40;;
71204;SDS011;58935;54.498;18.544;2022-08-19T02:41:55;12.90;;;8.00;;
71204;SDS011;58935;54.498;18.544;2022-08-19T02:44:21;10.80;;;7.90;;
71204;SDS011;58935;54.498;18.544;2022-08-19T02:46:48;12.00;;;8.00;;
71204;SDS011;58935;54.498;18.544;2022-08-19T02:49:15;9.80;;;8.20;;
71204;SDS011;58935;54.498;18.544;2022-08-19T02:51:44;16.90;;;8.80;;
71204;SDS011;58935;54.498;18.544;2022-08-19T02:54:11;10.60;;;7.80;;
71204;SDS011;58935;54.498;18.544;2022-08-19T02:56:39;11.70;;;8.70;;
71204;SDS011;58935;54.498;18.544;2022-08-19T02:59:06;21.60;;;8.30;;
71204;SDS011;58935;54.498;18.544;2022-08-19T03:01:33;10.30;;;8.00;;
71204;SDS011;58935;54.498;18.544;2022-08-19T03:04:01;12.00;;;8.00;;
71204;SDS011;58935;54.498;18.544;2022-08-19T03:06:30;12.50;;;7.80;;
71204;SDS011;58935;54.498;18.544;2022-08-19T03:08:56;11.70;;;7.20;;
71204;SDS011;58935;54.498;18.544;2022-08-19T03:11:25;21.20;;;8.00;;
71204;SDS011;58935;54.498;18.544;2022-08-19T03:13:54;12.50;;;8.60;;
71204;SDS011;58935;54.498;18.544;2022-08-19T03:16:22;16.20;;;8.60;;
71204;SDS011;58935;54.498;18.544;2022-08-19T03:18:50;15.20;;;8.00;;
71204;SDS011;58935;54.498;18.544;2022-08-19T03:21:20;15.90;;;8.60;;
71204;SDS011;58935;54.498;18.544;2022-08-19T03:23:49;10.20;;;8.20;;
71204;SDS011;58935;54.498;18.544;2022-08-19T03:26:16;9.90;;;7.90;;
71204;SDS011;58935;54.498;18.544;2022-08-19T03:28:44;13.10;;;8.10;;
71204;SDS011;58935;54.498;18.544;2022-08-19T03:31:16;14.70;;;8.20;;
71204;SDS011;58935;54.498;18.544;2022-08-19T03:33:44;14.20;;;7.90;;
71204;SDS011;58935;54.498;18.544;2022-08-19T03:36:14;11.80;;;7.80;;
71204;SDS011;58935;54.498;18.544;2022-08-19T03:38:46;9.70;;;8.70;;
71204;SDS011;58935;54.498;18.544;2022-08-19T03:41:16;12.30;;;8.00;;
71204;SDS011;58935;54.498;18.544;2022-08-19T03:43:44;11.70;;;8.20;;
71204;SDS011;58935;54.498;18.544;2022-08-19T03:46:15;11.90;;;8.30;;
71204;SDS011;58935;54.498;18.544;2022-08-19T03:48:43;8.70;;;7.50;;
71204;SDS011;58935;54.498;18.544;2022-08-19T03:51:15;13.70;;;8.40;;
71204;SDS011;58935;54.498;18.544;2022-08-19T03:53:43;10.30;;;7.90;;
71204;SDS011;58935;54.498;18.544;2022-08-19T03:56:10;17.90;;;8.10;;
71204;SDS011;58935;54.498;18.544;2022-08-19T03:58:35;13.30;;;7.70;;
71204;SDS011;58935;54.498;18.544;2022-08-19T04:01:07;13.30;;;8.50;;
71204;SDS011;58935;54.498;18.544;2022-08-19T04:03:34;10.60;;;8.30;;
71204;SDS011;58935;54.498;18.544;2022-08-19T04:06:14;8.80;;;7.90;;
71204;SDS011;58935;54.498;18.544;2022-08-19T04:08:43;13.00;;;9.30;;
71204;SDS011;58935;54.498;18.544;2022-08-19T04:11:13;16.40;;;8.70;;
71204;SDS011;58935;54.498;18.544;2022-08-19T04:13:41;12.60;;;8.90;;
71204;SDS011;58935;54.498;18.544;2022-08-19T04:16:09;12.70;;;8.70;;
71204;SDS011;58935;54.498;18.544;2022-08-19T04:18:36;13.10;;;8.70;;
71204;SDS011;58935;54.498;18.544;2022-08-19T04:21:03;12.10;;;8.30;;
71204;SDS011;58935;54.498;18.544;2022-08-19T04:23:30;16.00;;;8.50;;
71204;SDS011;58935;54.498;18.544;2022-08-19T04:25:57;15.20;;;8.50;;
71204;SDS011;58935;54.498;18.544;2022-08-19T04:28:23;13.30;;;8.50;;
71204;SDS011;58935;54.498;18.544;2022-08-19T04:30:52;14.40;;;8.80;;
71204;SDS011;58935;54.498;18.544;2022-08-19T04:33:21;11.70;;;8.10;;
71204;SDS011;58935;54.498;18.544;2022-08-19T04:35:50;10.70;;;8.40;;
71204;SDS011;58935;54.498;18.544;2022-08-19T04:38:19;15.30;;;10.20;;
71204;SDS011;58935;54.498;18.544;2022-08-19T04:40:49;19.80;;;10.40;;
71204;SDS011;58935;54.498;18.544;2022-08-19T04:43:19;24.20;;;10.70;;
71204;SDS011;58935;54.498;18.544;2022-08-19T04:45:45;18.80;;;10.60;;
71204;SDS011;58935;54.498;18.544;2022-08-19T04:48:11;15.70;;;9.30;;
71204;SDS011;58935;54.498;18.544;2022-08-19T04:50:42;13.60;;;8.70;;
71204;SDS011;58935;54.498;18.544;2022-08-19T04:53:09;11.70;;;8.30;;
71204;SDS011;58935;54.498;18.544;2022-08-19T04:55:38;13.90;;;9.30;;
71204;SDS011;58935;54.498;18.544;2022-08-19T04:58:05;12.40;;;9.30;;
71204;SDS011;58935;54.498;18.544;2022-08-19T05:00:31;17.30;;;10.90;;
71204;SDS011;58935;54.498;18.544;2022-08-19T05:02:57;18.40;;;10.80;;
71204;SDS011;58935;54.498;18.544;2022-08-19T05:05:22;16.50;;;11.00;;
71204;SDS011;58935;54.498;18.544;2022-08-19T05:07:47;16.40;;;12.40;;
71204;SDS011;58935;54.498;18.544;2022-08-19T05:10:13;18.50;;;11.80;;
71204;SDS011;58935;54.498;18.544;2022-08-19T05:12:38;16.60;;;11.60;;
71204;SDS011;58935;54.498;18.544;2022-08-19T05:15:05;15.30;;;10.90;;
71204;SDS011;58935;54.498;18.544;2022-08-19T05:17:34;13.10;;;9.30;;
71204;SDS011;58935;54.498;18.544;2022-08-19T05:20:00;17.60;;;10.20;;
71204;SDS011;58935;54.498;18.544;2022-08-19T05:22:29;13.90;;;9.50;;
71204;SDS011;58935;54.498;18.544;2022-08-19T05:24:58;18.00;;;10.00;;
71204;SDS011;58935;54.498;18.544;2022-08-19T05:27:25;16.70;;;11.10;;
71204;SDS011;58935;54.498;18.544;2022-08-19T05:29:51;21.80;;;10.10;;
71204;SDS011;58935;54.498;18.544;2022-08-19T05:32:16;23.90;;;11.10;;
71204;SDS011;58935;54.498;18.544;2022-08-19T05:34:42;14.60;;;8.90;;
71204;SDS011;58935;54.498;18.544;2022-08-19T05:37:08;19.40;;;9.70;;
71204;SDS011;58935;54.498;18.544;2022-08-19T05:39:36;17.10;;;9.30;;
71204;SDS011;58935;54.498;18.544;2022-08-19T05:42:05;15.80;;;10.50;;
71204;SDS011;58935;54.498;18.544;2022-08-19T05:44:35;14.60;;;9.30;;
71204;SDS011;58935;54.498;18.544;2022-08-19T05:47:05;12.40;;;9.40;;
71204;SDS011;58935;54.498;18.544;2022-08-19T05:49:34;12.50;;;8.60;;
71204;SDS011;58935;54.498;18.544;2022-08-19T05:52:04;22.30;;;8.80;;
71204;SDS011;58935;54.498;18.544;2022-08-19T05:54:31;14.60;;;8.20;;
71204;SDS011;58935;54.498;18.544;2022-08-19T05:56:57;9.80;;;8.10;;
71204;SDS011;58935;54.498;18.544;2022-08-19T05:59:23;16.30;;;8.00;;
71204;SDS011;58935;54.498;18.544;2022-08-19T06:01:51;12.40;;;7.60;;
71204;SDS011;58935;54.498;18.544;2022-08-19T06:04:19;18.00;;;8.30;;
71204;SDS011;58935;54.498;18.544;2022-08-19T06:06:47;11.60;;;8.00;;
71204;SDS011;58935;54.498;18.544;2022-08-19T06:09:14;16.70;;;7.70;;
71204;SDS011;58935;54.498;18.544;2022-08-19T06:11:43;19.30;;;8.40;;
71204;SDS011;58935;54.498;18.544;2022-08-19T06:14:14;10.50;;;8.20;;
71204;SDS011;58935;54.498;18.544;2022-08-19T06:16:43;21.00;;;9.00;;
71204;SDS011;58935;54.498;18.544;2022-08-19T06:19:13;21.30;;;8.50;;
71204;SDS011;58935;54.498;18.544;2022-08-19T06:21:44;12.80;;;7.80;;
71204;SDS011;58935;54.498;18.544;2022-08-19T06:24:13;10.10;;;8.60;;
71204;SDS011;58935;54.498;18.544;2022-08-19T06:26:42;13.50;;;7.70;;
71204;SDS011;58935;54.498;18.544;2022-08-19T06:29:11;12.60;;;9.00;;
71204;SDS011;58935;54.498;18.544;2022-08-19T06:31:41;11.30;;;8.00;;
71204;SDS011;58935;54.498;18.544;2022-08-19T06:34:09;15.80;;;8.10;;
71204;SDS011;58935;54.498;18.544;2022-08-19T06:36:39;23.60;;;8.30;;
71204;SDS011;58935;54.498;18.544;2022-08-19T06:39:11;31.10;;;9.60;;
71204;SDS011;58935;54.498;18.544;2022-08-19T06:41:42;19.40;;;9.30;;
71204;SDS011;58935;54.498;18.544;2022-08-19T06:44:10;14.70;;;8.40;;
71204;SDS011;58935;54.498;18.544;2022-08-19T06:46:37;13.20;;;8.40;;
71204;SDS011;58935;54.498;18.544;2022-08-19T06:49:05;21.50;;;8.40;;
71204;SDS011;58935;54.498;18.544;2022-08-19T06:51:31;14.20;;;8.00;;
71204;SDS011;58935;54.498;18.544;2022-08-19T06:53:58;10.50;;;7.40;;
71204;SDS011;58935;54.498;18.544;2022-08-19T06:56:29;13.30;;;7.80;;
71204;SDS011;58935;54.498;18.544;2022-08-19T06:59:08;11.90;;;7.50;;
71204;SDS011;58935;54.498;18.544;2022-08-19T07:01:38;13.90;;;7.70;;
71204;SDS011;58935;54.498;18.544;2022-08-19T07:04:07;16.90;;;7.70;;
71204;SDS011;58935;54.498;18.544;2022-08-19T07:06:34;20.10;;;8.00;;
71204;SDS011;58935;54.498;18.544;2022-08-19T07:09:00;13.50;;;7.70;;
71204;SDS011;58935;54.498;18.544;2022-08-19T07:11:27;12.20;;;7.80;;
71204;SDS011;58935;54.498;18.544;2022-08-19T07:13:52;20.00;;;7.60;;
71204;SDS011;58935;54.498;18.544;2022-08-19T07:16:19;15.20;;;7.10;;
71204;SDS011;58935;54.498;18.544;2022-08-19T07:18:47;13.50;;;7.70;;
71204;SDS011;58935;54.498;18.544;2022-08-19T07:21:17;12.90;;;6.60;;
71204;SDS011;58935;54.498;18.544;2022-08-19T07:23:45;15.00;;;6.70;;
71204;SDS011;58935;54.498;18.544;2022-08-19T07:26:15;13.00;;;6.30;;
71204;SDS011;58935;54.498;18.544;2022-08-19T07:28:44;18.60;;;7.40;;
71204;SDS011;58935;54.498;18.544;2022-08-19T07:31:13;22.30;;;7.60;;
71204;SDS011;58935;54.498;18.544;2022-08-19T07:33:40;19.20;;;8.10;;
71204;SDS011;58935;54.498;18.544;2022-08-19T07:36:09;14.20;;;7.20;;
71204;SDS011;58935;54.498;18.544;2022-08-19T07:38:37;12.90;;;7.80;;
71204;SDS011;58935;54.498;18.544;2022-08-19T07:41:05;22.50;;;7.80;;
71204;SDS011;58935;54.498;18.544;2022-08-19T07:43:31;19.10;;;7.60;;
71204;SDS011;58935;54.498;18.544;2022-08-19T07:45:57;13.50;;;7.20;;
71204;SDS011;58935;54.498;18.544;2022-08-19T07:48:24;14.30;;;7.40;;
71204;SDS011;58935;54.498;18.544;2022-08-19T07:50:53;12.30;;;6.80;;
71204;SDS011;58935;54.498;18.544;2022-08-19T07:53:24;17.20;;;7.10;;
71204;SDS011;58935;54.498;18.544;2022-08-19T07:55:51;13.80;;;7.50;;
71204;SDS011;58935;54.498;18.544;2022-08-19T07:58:20;10.00;;;7.80;;
71204;SDS011;58935;54.498;18.544;2022-08-19T08:00:50;13.40;;;7.50;;
71204;SDS011;58935;54.498;18.544;2022-08-19T08:03:18;12.00;;;7.40;;
71204;SDS011;58935;54.498;18.544;2022-08-19T08:06:06;13.30;;;7.70;;
71204;SDS011;58935;54.498;18.544;2022-08-19T08:08:35;9.40;;;7.50;;
71204;SDS011;58935;54.498;18.544;2022-08-19T08:11:14;16.20;;;7.90;;
71204;SDS011;58935;54.498;18.544;2022-08-19T08:13:42;21.50;;;9.00;;
71204;SDS011;58935;54.498;18.544;2022-08-19T08:16:08;17.70;;;8.00;;
71204;SDS011;58935;54.498;18.544;2022-08-19T08:18:34;23.50;;;8.30;;
71204;SDS011;58935;54.498;18.544;2022-08-19T08:21:06;15.20;;;7.70;;
71204;SDS011;58935;54.498;18.544;2022-08-19T08:23:32;18.20;;;7.80;;
71204;SDS011;58935;54.498;18.544;2022-08-19T08:25:58;13.50;;;7.20;;
71204;SDS011;58935;54.498;18.544;2022-08-19T08:28:25;21.90;;;8.30;;
71204;SDS011;58935;54.498;18.544;2022-08-19T08:30:52;16.30;;;8.70;;
71204;SDS011;58935;54.498;18.544;2022-08-19T08:33:20;21.20;;;9.40;;
71204;SDS011;58935;54.498;18.544;2022-08-19T08:35:47;22.00;;;8.80;;
71204;SDS011;58935;54.498;18.544;2022-08-19T08:38:13;17.60;;;8.70;;
71204;SDS011;58935;54.498;18.544;2022-08-19T08:40:49;21.40;;;8.20;;
71204;SDS011;58935;54.498;18.544;2022-08-19T08:43:27;18.60;;;7.90;;
71204;SDS011;58935;54.498;18.544;2022-08-19T08:46:08;10.70;;;7.00;;
71204;SDS011;58935;54.498;18.544;2022-08-19T08:48:51;15.80;;;8.50;;
71204;SDS011;58935;54.498;18.544;2022-08-19T08:51:34;15.30;;;7.80;;
71204;SDS011;58935;54.498;18.544;2022-08-19T08:54:06;18.40;;;7.70;;
71204;SDS011;58935;54.498;18.544;2022-08-19T08:56:38;16.80;;;7.20;;
71204;SDS011;58935;54.498;18.544;2022-08-19T08:59:20;10.80;;;7.20;;
71204;SDS011;58935;54.498;18.544;2022-08-19T09:01:48;12.90;;;7.60;;
71204;SDS011;58935;54.498;18.544;2022-08-19T09:04:14;11.80;;;7.50;;
71204;SDS011;58935;54.498;18.544;2022-08-19T09:06:52;12.20;;;7.60;;
71204;SDS011;58935;54.498;18.544;2022-08-19T09:09:39;11.10;;;8.00;;
71204;SDS011;58935;54.498;18.544;2022-08-19T09:15:03;9.20;;;7.20;;
71204;SDS011;58935;54.498;18.544;2022-08-19T09:17:32;10.70;;;7.90;;
71204;SDS011;58935;54.498;18.544;2022-08-19T09:20:02;13.80;;;7.80;;
71204;SDS011;58935;54.498;18.544;2022-08-19T09:22:35;9.10;;;8.20;;
71204;SDS011;58935;54.498;18.544;2022-08-19T09:25:06;12.60;;;7.60;;
71204;SDS011;58935;54.498;18.544;2022-08-19T09:27:35;14.30;;;8.20;;
71204;SDS011;58935;54.498;18.544;2022-08-19T09:30:04;12.70;;;8.00;;
71204;SDS011;58935;54.498;18.544;2022-08-19T09:32:31;12.60;;;7.50;;
71204;SDS011;58935;54.498;18.544;2022-08-19T09:34:57;12.40;;;7.40;;
71204;SDS011;58935;54.498;18.544;2022-08-19T09:37:24;13.90;;;7.40;;
71204;SDS011;58935;54.498;18.544;2022-08-19T09:39:50;8.60;;;6.30;;
71204;SDS011;58935;54.498;18.544;2022-08-19T09:42:16;12.90;;;6.60;;
71204;SDS011;58935;54.498;18.544;2022-08-19T09:44:42;11.20;;;6.30;;
71204;SDS011;58935;54.498;18.544;2022-08-19T09:47:10;11.90;;;5.60;;
71204;SDS011;58935;54.498;18.544;2022-08-19T09:49:38;10.60;;;5.60;;
71204;SDS011;58935;54.498;18.544;2022-08-19T09:52:07;8.80;;;6.00;;
71204;SDS011;58935;54.498;18.544;2022-08-19T09:54:35;9.30;;;4.80;;
71204;SDS011;58935;54.498;18.544;2022-08-19T09:57:01;12.60;;;5.20;;
71204;SDS011;58935;54.498;18.544;2022-08-19T09:59:27;10.80;;;7.10;;
71204;SDS011;58935;54.498;18.544;2022-08-19T10:01:53;10.90;;;6.50;;
71204;SDS011;58935;54.498;18.544;2022-08-19T10:04:19;7.30;;;5.90;;
71204;SDS011;58935;54.498;18.544;2022-08-19T10:06:47;8.10;;;5.70;;
71204;SDS011;58935;54.498;18.544;2022-08-19T10:09:16;9.10;;;5.90;;
71204;SDS011;58935;54.498;18.544;2022-08-19T10:11:44;13.50;;;6.50;;
71204;SDS011;58935;54.498;18.544;2022-08-19T10:14:15;11.40;;;6.30;;
71204;SDS011;58935;54.498;18.544;2022-08-19T10:16:42;9.90;;;5.50;;
71204;SDS011;58935;54.498;18.544;2022-08-19T10:19:08;8.10;;;5.50;;
71204;SDS011;58935;54.498;18.544;2022-08-19T10:21:35;12.30;;;5.30;;
71204;SDS011;58935;54.498;18.544;2022-08-19T10:24:03;9.40;;;5.30;;
71204;SDS011;58935;54.498;18.544;2022-08-19T10:26:34;7.30;;;4.70;;
71204;SDS011;58935;54.498;18.544;2022-08-19T10:29:03;11.00;;;5.60;;
71204;SDS011;58935;54.498;18.544;2022-08-19T10:31:31;9.60;;;5.30;;
71204;SDS011;58935;54.498;18.544;2022-08-19T10:33:59;14.40;;;5.40;;
71204;SDS011;58935;54.498;18.544;2022-08-19T10:36:28;6.90;;;5.40;;
71204;SDS011;58935;54.498;18.544;2022-08-19T10:38:59;12.70;;;5.70;;
71204;SDS011;58935;54.498;18.544;2022-08-19T10:41:29;9.30;;;6.70;;
71204;SDS011;58935;54.498;18.544;2022-08-19T10:43:59;9.50;;;5.80;;
71204;SDS011;58935;54.498;18.544;2022-08-19T10:46:27;7.40;;;6.00;;
71204;SDS011;58935;54.498;18.544;2022-08-19T10:48:56;12.30;;;6.20;;
71204;SDS011;58935;54.498;18.544;2022-08-19T10:51:22;10.90;;;5.60;;
71204;SDS011;58935;54.498;18.544;2022-08-19T10:53:51;13.10;;;6.40;;
71204;SDS011;58935;54.498;18.544;2022-08-19T10:56:17;7.00;;;5.40;;
71204;SDS011;58935;54.498;18.544;2022-08-19T10:58:47;8.20;;;6.00;;
71204;SDS011;58935;54.498;18.544;2022-08-19T11:01:13;9.50;;;6.40;;
71204;SDS011;58935;54.498;18.544;2022-08-19T11:03:38;11.30;;;9.80;;
71204;SDS011;58935;54.498;18.544;2022-08-19T11:06:06;11.20;;;5.90;;
71204;SDS011;58935;54.498;18.544;2022-08-19T11:08:35;7.70;;;6.00;;
71204;SDS011;58935;54.498;18.544;2022-08-19T11:11:03;11.80;;;6.20;;
71204;SDS011;58935;54.498;18.544;2022-08-19T11:13:32;5.90;;;5.20;;
71204;SDS011;58935;54.498;18.544;2022-08-19T11:16:06;8.70;;;6.10;;
71204;SDS011;58935;54.498;18.544;2022-08-19T11:18:36;7.40;;;5.30;;
71204;SDS011;58935;54.498;18.544;2022-08-19T11:21:06;8.20;;;5.50;;
71204;SDS011;58935;54.498;18.544;2022-08-19T11:23:34;8.60;;;5.50;;
71204;SDS011;58935;54.498;18.544;2022-08-19T11:25:59;8.10;;;5.60;;
71204;SDS011;58935;54.498;18.544;2022-08-19T11:28:26;11.00;;;5.10;;
71204;SDS011;58935;54.498;18.544;2022-08-19T11:30:52;13.30;;;4.60;;
71204;SDS011;58935;54.498;18.544;2022-08-19T11:33:17;9.10;;;5.80;;
71204;SDS011;58935;54.498;18.544;2022-08-19T11:35:44;5.00;;;4.50;;
71204;SDS011;58935;54.498;18.544;2022-08-19T11:38:10;11.00;;;6.30;;
71204;SDS011;58935;54.498;18.544;2022-08-19T11:40:37;10.50;;;5.70;;
71204;SDS011;58935;54.498;18.544;2022-08-19T11:43:03;10.20;;;5.60;;
71204;SDS011;58935;54.498;18.544;2022-08-19T11:45:30;9.60;;;5.40;;
71204;SDS011;58935;54.498;18.544;2022-08-19T11:47:56;11.60;;;5.70;;
71204;SDS011;58935;54.498;18.544;2022-08-19T11:50:22;12.10;;;5.80;;
71204;SDS011;58935;54.498;18.544;2022-08-19T11:52:49;7.50;;;5.30;;
71204;SDS011;58935;54.498;18.544;2022-08-19T11:55:19;8.60;;;5.20;;
71204;SDS011;58935;54.498;18.544;2022-08-19T11:57:44;7.60;;;5.20;;
71204;SDS011;58935;54.498;18.544;2022-08-19T12:00:12;9.60;;;5.40;;
71204;SDS011;58935;54.498;18.544;2022-08-19T12:02:38;8.40;;;5.40;;
71204;SDS011;58935;54.498;18.544;2022-08-19T12:05:05;13.40;;;5.80;;
71204;SDS011;58935;54.498;18.544;2022-08-19T12:07:31;12.50;;;5.80;;
71204;SDS011;58935;54.498;18.544;2022-08-19T12:09:59;9.20;;;6.00;;
71204;SDS011;58935;54.498;18.544;2022-08-19T12:12:26;10.60;;;5.50;;
71204;SDS011;58935;54.498;18.544;2022-08-19T12:14:52;8.70;;;5.80;;
71204;SDS011;58935;54.498;18.544;2022-08-19T12:17:27;12.00;;;5.50;;
71204;SDS011;58935;54.498;18.544;2022-08-19T12:19:53;8.30;;;5.70;;
71204;SDS011;58935;54.498;18.544;2022-08-19T12:22:19;11.90;;;5.50;;
71204;SDS011;58935;54.498;18.544;2022-08-19T12:24:46;10.90;;;5.30;;
71204;SDS011;58935;54.498;18.544;2022-08-19T12:27:11;9.10;;;5.30;;
71204;SDS011;58935;54.498;18.544;2022-08-19T12:29:37;14.10;;;5.60;;
71204;SDS011;58935;54.498;18.544;2022-08-19T12:32:02;10.20;;;5.50;;
71204;SDS011;58935;54.498;18.544;2022-08-19T12:34:30;12.50;;;6.10;;
71204;SDS011;58935;54.498;18.544;2022-08-19T12:36:59;9.60;;;5.60;;
71204;SDS011;58935;54.498;18.544;2022-08-19T12:39:27;9.30;;;5.10;;
71204;SDS011;58935;54.498;18.544;2022-08-19T12:41:52;13.60;;;5.10;;
71204;SDS011;58935;54.498;18.544;2022-08-19T12:44:18;8.80;;;5.40;;
71204;SDS011;58935;54.498;18.544;2022-08-19T12:46:44;11.20;;;5.40;;
71204;SDS011;58935;54.498;18.544;2022-08-19T12:49:09;10.90;;;5.30;;
71204;SDS011;58935;54.498;18.544;2022-08-19T12:51:35;11.80;;;5.10;;
71204;SDS011;58935;54.498;18.544;2022-08-19T12:54:01;8.50;;;5.20;;
71204;SDS011;58935;54.498;18.544;2022-08-19T12:56:27;9.90;;;5.20;;
71204;SDS011;58935;54.498;18.544;2022-08-19T12:58:52;8.60;;;5.50;;
71204;SDS011;58935;54.498;18.544;2022-08-19T13:01:18;9.00;;;5.20;;
71204;SDS011;58935;54.498;18.544;2022-08-19T13:03:45;6.90;;;5.00;;
71204;SDS011;58935;54.498;18.544;2022-08-19T13:06:12;11.50;;;5.50;;
71204;SDS011;58935;54.498;18.544;2022-08-19T13:08:39;7.20;;;4.80;;
71204;SDS011;58935;54.498;18.544;2022-08-19T13:11:13;17.20;;;5.40;;
71204;SDS011;58935;54.498;18.544;2022-08-19T13:13:43;11.10;;;5.40;;
71204;SDS011;58935;54.498;18.544;2022-08-19T13:16:12;8.00;;;5.40;;
71204;SDS011;58935;54.498;18.544;2022-08-19T13:18:39;12.10;;;5.00;;
71204;SDS011;58935;54.498;18.544;2022-08-19T13:21:08;8.10;;;5.80;;
71204;SDS011;58935;54.498;18.544;2022-08-19T13:23:36;7.10;;;4.80;;
71204;SDS011;58935;54.498;18.544;2022-08-19T13:26:05;11.40;;;5.60;;
71204;SDS011;58935;54.498;18.544;2022-08-19T13:28:33;16.30;;;6.10;;
71204;SDS011;58935;54.498;18.544;2022-08-19T13:31:03;10.80;;;5.70;;
71204;SDS011;58935;54.498;18.544;2022-08-19T13:33:31;10.60;;;5.20;;
71204;SDS011;58935;54.498;18.544;2022-08-19T13:35:59;8.30;;;4.90;;
71204;SDS011;58935;54.498;18.544;2022-08-19T13:38:27;9.90;;;5.80;;
71204;SDS011;58935;54.498;18.544;2022-08-19T13:40:54;10.10;;;5.10;;
71204;SDS011;58935;54.498;18.544;2022-08-19T13:43:22;16.50;;;5.50;;
71204;SDS011;58935;54.498;18.544;2022-08-19T13:45:53;9.70;;;5.60;;
71204;SDS011;58935;54.498;18.544;2022-08-19T13:48:21;8.70;;;5.00;;
71204;SDS011;58935;54.498;18.544;2022-08-19T13:50:48;8.70;;;5.50;;
71204;SDS011;58935;54.498;18.544;2022-08-19T13:53:15;6.00;;;4.70;;
71204;SDS011;58935;54.498;18.544;2022-08-19T13:55:42;7.20;;;5.70;;
71204;SDS011;58935;54.498;18.544;2022-08-19T13:58:09;5.50;;;4.60;;
71204;SDS011;58935;54.498;18.544;2022-08-19T14:00:39;9.40;;;5.10;;
71204;SDS011;58935;54.498;18.544;2022-08-19T14:03:07;11.70;;;5.60;;
71204;SDS011;58935;54.498;18.544;2022-08-19T14:05:35;9.20;;;5.60;;
71204;SDS011;58935;54.498;18.544;2022-08-19T14:08:00;10.00;;;5.10;;
71204;SDS011;58935;54.498;18.544;2022-08-19T14:10:27;11.70;;;5.40;;
71204;SDS011;58935;54.498;18.544;2022-08-19T14:12:56;8.30;;;4.30;;
71204;SDS011;58935;54.498;18.544;2022-08-19T14:15:25;7.60;;;4.70;;
71204;SDS011;58935;54.498;18.544;2022-08-19T14:17:52;9.50;;;4.70;;
71204;SDS011;58935;54.498;18.544;2022-08-19T14:20:19;10.30;;;7.00;;
71204;SDS011;58935;54.498;18.544;2022-08-19T14:22:46;7.00;;;5.00;;
71204;SDS011;58935;54.498;18.544;2022-08-19T14:25:19;14.30;;;5.50;;
71204;SDS011;58935;54.498;18.544;2022-08-19T14:27:47;10.00;;;4.90;;
71204;SDS011;58935;54.498;18.544;2022-08-19T14:30:16;10.00;;;5.50;;
71204;SDS011;58935;54.498;18.544;2022-08-19T14:32:43;5.60;;;4.80;;